createdAt,value
2022-08-19T00:00:42.577Z,23.76
2022-08-19T00:03:08.962Z,23.78
2022-08-19T00:05:35.588Z,23.76
2022-08-19T00:08:01.991Z,23.76
2022-08-19T00:10:31.233Z,23.76
2022-08-19T00:12:57.614Z,23.76
2022-08-19T00:15:23.907Z,23.75
2022-08-19T00:17:50.210Z,23.74
2022-08-19T00:20:16.540Z,23.74
2022-08-19T00:22:42.893Z,23.74
2022-08-19T00:25:09.222Z,23.72
2022-08-19T00:27:36.272Z,23.72
2022-08-19T00:30:02.633Z,23.71
2022-08-19T00:32:28.951Z,23.70
2022-08-19T00:34:56.995Z,23.68
2022-08-19T00:37:23.343Z,23.67
2022-08-19T00:39:49.732Z,23.66
2022-08-19T00:42:19.083Z,23.66
2022-08-19T00:44:45.459Z,23.66
2022-08-19T00:47:14.154Z,23.66
2022-08-19T00:49:40.685Z,23.64
2022-08-19T00:52:07.083Z,23.64
2022-08-19T00:54:33.402Z,23.63
2022-08-19T00:56:59.733Z,23.62
2022-08-19T00:59:58.798Z,23.61
2022-08-19T01:02:15.395Z,23.59
2022-08-19T01:04:41.742Z,23.58
2022-08-19T01:07:08.057Z,23.57
2022-08-19T01:09:34.334Z,23.54
2022-08-19T01:12:00.699Z,23.55
2022-08-19T01:14:26.977Z,23.52
2022-08-19T01:16:53.671Z,23.52
2022-08-19T01:19:19.980Z,23.51
2022-08-19T01:21:46.281Z,23.50
2022-08-19T01:24:12.639Z,23.49
2022-08-19T01:26:39.077Z,23.48
2022-08-19T01:29:08.438Z,23.47
2022-08-19T01:31:36.229Z,23.47
2022-08-19T01:34:02.532Z,23.46
2022-08-19T01:36:28.881Z,23.46
2022-08-19T01:38:55.292Z,23.44
2022-08-19T01:41:21.730Z,23.42
2022-08-19T01:44:13.905Z,23.41
2022-08-19T01:46:34.353Z,23.40
2022-08-19T01:49:01.002Z,23.39
2022-08-19T01:51:27.275Z,23.37
2022-08-19T01:53:54.982Z,23.38
2022-08-19T01:56:21.415Z,23.36
2022-08-19T01:58:47.839Z,23.34
2022-08-19T02:01:14.192Z,23.34
2022-08-19T02:03:40.500Z,23.34
2022-08-19T02:06:06.918Z,23.33
2022-08-19T02:08:33.225Z,23.33
2022-08-19T02:10:59.559Z,23.32
2022-08-19T02:13:26.333Z,23.31
2022-08-19T02:15:52.915Z,23.29
2022-08-19T02:18:19.212Z,23.28
2022-08-19T02:20:45.584Z,23.28
2022-08-19T02:23:13.769Z,23.26
2022-08-19T02:25:42.461Z,23.26
2022-08-19T02:28:08.788Z,23.25
2022-08-19T02:30:35.271Z,23.23
2022-08-19T02:33:01.685Z,23.23
2022-08-19T02:35:28.197Z,23.21
2022-08-19T02:37:54.561Z,23.21
2022-08-19T02:40:21.041Z,23.21
2022-08-19T02:42:47.348Z,23.20
2022-08-19T02:45:13.919Z,23.19
2022-08-19T02:47:40.247Z,23.18
2022-08-19T02:50:06.522Z,23.17
2022-08-19T02:52:32.860Z,23.18
2022-08-19T02:54:59.224Z,23.15
2022-08-19T02:57:25.518Z,23.16
2022-08-19T02:59:51.939Z,23.15
2022-08-19T03:02:18.505Z,23.14
2022-08-19T03:04:44.881Z,23.12
2022-08-19T03:07:11.482Z,23.12
2022-08-19T03:09:37.856Z,23.10
2022-08-19T03:12:04.163Z,23.10
2022-08-19T03:14:30.752Z,23.07
2022-08-19T03:16:57.033Z,23.07
2022-08-19T03:19:23.359Z,23.06
2022-08-19T03:21:49.731Z,23.05
2022-08-19T03:24:16.124Z,23.04
2022-08-19T03:26:42.741Z,23.02
2022-08-19T03:29:09.059Z,23.01
2022-08-19T03:31:43.612Z,23.00
2022-08-19T03:34:12.159Z,22.99
2022-08-19T03:36:38.534Z,22.97
2022-08-19T03:39:04.824Z,22.94
2022-08-19T03:41:34.264Z,22.93
2022-08-19T03:44:12.652Z,22.91
2022-08-19T03:46:44.506Z,22.90
2022-08-19T03:49:11.040Z,22.89
2022-08-19T03:51:40.346Z,22.89
2022-08-19T03:54:06.614Z,22.88
2022-08-19T03:56:33.449Z,22.87
2022-08-19T03:59:01.984Z,22.86
2022-08-19T04:01:35.129Z,22.85
2022-08-19T04:04:01.892Z,22.84
2022-08-19T04:06:29.717Z,22.81
2022-08-19T04:08:56.056Z,22.81
2022-08-19T04:11:22.495Z,22.80
2022-08-19T04:14:08.883Z,22.78
2022-08-19T04:16:35.438Z,22.76
2022-08-19T04:19:01.796Z,22.74
2022-08-19T04:21:28.093Z,22.71
2022-08-19T04:23:54.459Z,22.71
2022-08-19T04:26:22.548Z,22.70
2022-08-19T04:28:49.000Z,22.68
2022-08-19T04:31:15.529Z,22.68
2022-08-19T04:33:41.889Z,22.66
2022-08-19T04:36:08.169Z,22.65
2022-08-19T04:38:34.442Z,22.65
2022-08-19T04:41:02.087Z,22.64
2022-08-19T04:43:28.875Z,22.62
2022-08-19T04:45:56.465Z,22.62
2022-08-19T04:48:27.879Z,22.60
2022-08-19T04:50:54.346Z,22.60
2022-08-19T04:53:20.621Z,22.59
2022-08-19T04:55:47.192Z,22.58
2022-08-19T04:58:13.504Z,22.59
2022-08-19T05:00:39.912Z,22.58
2022-08-19T05:03:07.594Z,22.57
2022-08-19T05:05:45.076Z,22.56
2022-08-19T05:08:12.075Z,22.57
2022-08-19T05:10:41.688Z,22.56
2022-08-19T05:13:07.952Z,22.57
2022-08-19T05:15:35.914Z,22.58
2022-08-19T05:18:02.396Z,22.58
2022-08-19T05:20:28.771Z,22.58
2022-08-19T05:22:55.399Z,22.58
2022-08-19T05:25:21.924Z,22.58
2022-08-19T05:27:48.216Z,22.56
2022-08-19T05:30:14.540Z,22.56
2022-08-19T05:32:40.867Z,22.55
2022-08-19T05:35:07.183Z,22.55
2022-08-19T05:37:33.477Z,22.55
2022-08-19T05:39:59.927Z,22.58
2022-08-19T05:42:26.288Z,22.59
2022-08-19T05:44:52.569Z,22.61
2022-08-19T05:47:18.872Z,22.65
2022-08-19T05:49:45.312Z,22.76
2022-08-19T05:52:11.767Z,22.88
2022-08-19T05:54:39.055Z,22.99
2022-08-19T05:57:05.459Z,23.08
2022-08-19T05:59:31.844Z,23.17
2022-08-19T06:01:58.193Z,23.25
2022-08-19T06:04:24.660Z,23.33
2022-08-19T06:06:50.992Z,23.40
2022-08-19T06:09:17.310Z,23.44
2022-08-19T06:11:43.617Z,23.46
2022-08-19T06:14:10.339Z,23.54
2022-08-19T06:16:43.096Z,23.60
2022-08-19T06:19:09.442Z,23.68
2022-08-19T06:21:35.745Z,23.72
2022-08-19T06:24:02.056Z,23.75
2022-08-19T06:26:28.417Z,23.75
2022-08-19T06:28:54.910Z,23.75
2022-08-19T06:31:21.190Z,23.76
2022-08-19T06:33:47.517Z,23.83
2022-08-19T06:36:16.601Z,23.91
2022-08-19T06:38:43.019Z,23.99
2022-08-19T06:41:15.341Z,24.12
2022-08-19T06:43:44.364Z,24.20
2022-08-19T06:46:12.396Z,24.29
2022-08-19T06:48:45.910Z,24.29
2022-08-19T06:51:12.510Z,24.44
2022-08-19T06:53:38.864Z,24.56
2022-08-19T06:56:05.257Z,24.68
2022-08-19T06:58:31.581Z,24.75
2022-08-19T07:00:58.266Z,24.90
2022-08-19T07:03:24.592Z,25.03
2022-08-19T07:05:51.037Z,25.01
2022-08-19T07:08:17.457Z,25.02
2022-08-19T07:10:45.010Z,25.00
2022-08-19T07:13:12.064Z,24.91
2022-08-19T07:15:38.416Z,24.85
2022-08-19T07:18:06.239Z,24.86
2022-08-19T07:20:32.587Z,24.88
2022-08-19T07:23:01.200Z,24.88
2022-08-19T07:25:32.179Z,24.86
2022-08-19T07:27:59.841Z,24.84
2022-08-19T07:30:28.062Z,24.83
2022-08-19T07:32:54.388Z,24.83
2022-08-19T07:35:21.043Z,24.83
2022-08-19T07:37:47.457Z,24.83
2022-08-19T07:40:13.869Z,24.84
2022-08-19T07:42:40.311Z,24.84
2022-08-19T07:45:06.737Z,24.84
2022-08-19T07:47:50.159Z,24.84
2022-08-19T07:50:18.082Z,24.83
2022-08-19T07:52:44.476Z,24.83
2022-08-19T07:55:42.295Z,24.83
2022-08-19T07:58:03.264Z,24.83
2022-08-19T08:00:31.158Z,24.84
2022-08-19T08:02:57.602Z,24.83
2022-08-19T08:05:24.057Z,24.83
2022-08-19T08:07:50.858Z,24.85
2022-08-19T08:10:21.038Z,24.87
2022-08-19T08:12:49.180Z,24.88
2022-08-19T08:15:37.504Z,24.90
2022-08-19T08:20:59.058Z,24.94
2022-08-19T08:23:25.532Z,24.97
2022-08-19T08:25:51.830Z,25.02
2022-08-19T08:28:19.013Z,25.08
2022-08-19T08:30:45.439Z,25.12
2022-08-19T08:33:11.790Z,25.19
2022-08-19T08:35:38.190Z,25.23
2022-08-19T08:38:04.467Z,25.21
2022-08-19T08:40:30.775Z,25.18
2022-08-19T08:42:57.264Z,25.17
2022-08-19T08:45:27.578Z,25.18
2022-08-19T08:50:39.472Z,25.22
2022-08-19T08:53:09.380Z,25.24
2022-08-19T08:55:37.260Z,25.29
2022-08-19T08:58:03.685Z,25.36
2022-08-19T09:00:29.950Z,25.45
2022-08-19T09:02:56.271Z,25.51
2022-08-19T09:05:26.173Z,25.63
2022-08-19T09:07:52.582Z,25.59
2022-08-19T09:10:18.942Z,25.57
2022-08-19T09:12:46.130Z,25.53
2022-08-19T09:15:13.730Z,25.50
2022-08-19T09:17:42.619Z,25.49
2022-08-19T09:20:09.258Z,25.49
2022-08-19T09:22:35.768Z,25.50
2022-08-19T09:25:03.042Z,25.52
2022-08-19T09:27:41.906Z,25.56
2022-08-19T09:30:09.702Z,25.61
2022-08-19T09:32:36.049Z,25.66
2022-08-19T09:35:02.369Z,25.69
2022-08-19T09:37:30.370Z,25.74
2022-08-19T09:39:59.428Z,25.79
2022-08-19T09:42:29.894Z,25.83
2022-08-19T09:44:56.433Z,25.85
2022-08-19T09:47:22.984Z,25.87
2022-08-19T09:49:49.269Z,25.93
2022-08-19T09:52:15.569Z,25.96
2022-08-19T09:54:44.188Z,25.98
2022-08-19T09:57:10.611Z,26.01
2022-08-19T09:59:36.909Z,26.02
2022-08-19T10:02:04.052Z,26.04
2022-08-19T10:04:37.349Z,26.06
2022-08-19T10:07:03.913Z,26.10
2022-08-19T10:09:34.565Z,26.11
2022-08-19T10:12:03.757Z,26.13
2022-08-19T10:14:30.245Z,26.16
2022-08-19T10:16:56.555Z,26.19
2022-08-19T10:19:25.807Z,26.22
2022-08-19T10:21:52.624Z,26.24
2022-08-19T10:24:19.446Z,26.27
2022-08-19T10:26:45.765Z,26.30
2022-08-19T10:29:15.115Z,26.33
2022-08-19T10:32:10.077Z,26.38
2022-08-19T10:34:36.545Z,26.40
2022-08-19T10:37:23.966Z,26.44
2022-08-19T10:39:57.918Z,26.47
2022-08-19T10:42:24.352Z,26.52
2022-08-19T10:44:52.017Z,26.57
2022-08-19T10:47:24.754Z,26.67
2022-08-19T10:49:55.078Z,26.75
2022-08-19T10:52:23.768Z,26.80
2022-08-19T10:54:58.696Z,26.82
2022-08-19T10:57:52.489Z,26.85
2022-08-19T11:00:18.307Z,26.88
2022-08-19T11:02:44.863Z,26.93
2022-08-19T11:05:12.701Z,26.96
2022-08-19T11:07:40.265Z,26.97
2022-08-19T11:10:09.263Z,26.99
2022-08-19T11:12:39.087Z,26.99
2022-08-19T11:15:05.560Z,27.01
2022-08-19T11:17:33.772Z,27.03
2022-08-19T11:20:00.136Z,27.07
2022-08-19T11:22:30.054Z,27.12
2022-08-19T11:25:05.459Z,27.17
2022-08-19T11:27:31.999Z,27.17
2022-08-19T11:29:59.567Z,27.19
2022-08-19T11:32:30.711Z,27.23
2022-08-19T11:34:57.076Z,27.23
2022-08-19T11:37:25.048Z,27.26
2022-08-19T11:39:53.827Z,27.27
2022-08-19T11:42:20.548Z,27.29
2022-08-19T11:44:46.924Z,27.33
2022-08-19T11:47:13.199Z,27.36
2022-08-19T11:49:42.300Z,27.39
2022-08-19T11:52:15.042Z,27.44
2022-08-19T11:54:41.344Z,27.48
2022-08-19T11:57:07.664Z,27.52
2022-08-19T11:59:33.954Z,27.55
2022-08-19T12:02:00.275Z,27.58
2022-08-19T12:04:26.600Z,27.61
2022-08-19T12:06:52.920Z,27.64
2022-08-19T12:09:19.224Z,27.68
2022-08-19T12:11:45.626Z,27.71
2022-08-19T12:14:14.857Z,27.74
2022-08-19T12:16:44.753Z,27.77
2022-08-19T12:19:21.699Z,27.80
2022-08-19T12:21:49.011Z,27.82
2022-08-19T12:24:15.466Z,27.84
2022-08-19T12:26:52.529Z,27.87
2022-08-19T12:29:23.965Z,27.84
2022-08-19T12:31:50.575Z,27.89
2022-08-19T12:34:16.928Z,27.91
2022-08-19T12:36:43.181Z,27.90
2022-08-19T12:39:10.686Z,27.93
2022-08-19T12:41:47.559Z,27.93
2022-08-19T12:44:20.703Z,27.98
2022-08-19T12:46:55.364Z,27.99
2022-08-19T12:49:51.913Z,28.03
2022-08-19T12:52:10.222Z,28.04
2022-08-19T12:54:36.597Z,28.04
2022-08-19T12:57:02.836Z,28.03
2022-08-19T12:59:29.070Z,28.05
2022-08-19T13:01:58.508Z,28.09
2022-08-19T13:04:24.794Z,28.11
2022-08-19T13:06:51.044Z,28.12
2022-08-19T13:09:17.283Z,28.13
2022-08-19T13:11:43.586Z,28.15
2022-08-19T13:14:10.108Z,28.17
2022-08-19T13:16:37.102Z,28.18
2022-08-19T13:19:25.843Z,28.22
2022-08-19T13:21:57.727Z,28.23
2022-08-19T13:24:27.634Z,28.20
2022-08-19T13:26:59.211Z,28.24
2022-08-19T13:29:25.479Z,28.25
2022-08-19T13:31:51.872Z,28.22
2022-08-19T13:34:18.171Z,28.22
2022-08-19T13:36:44.449Z,28.23
2022-08-19T13:39:10.809Z,28.25
2022-08-19T13:41:39.737Z,28.26
2022-08-19T13:44:06.322Z,28.28
2022-08-19T13:46:32.664Z,28.31
2022-08-19T13:48:59.190Z,28.35
2022-08-19T13:51:25.447Z,28.36
2022-08-19T13:53:51.849Z,28.37
2022-08-19T13:56:20.959Z,28.39
2022-08-19T13:58:49.418Z,28.41
2022-08-19T14:01:15.973Z,28.43
2022-08-19T14:03:42.376Z,28.43
2022-08-19T14:06:08.761Z,28.45
2022-08-19T14:08:37.255Z,28.45
2022-08-19T14:11:06.675Z,28.46
2022-08-19T14:13:35.170Z,28.47
2022-08-19T14:16:01.567Z,28.48
2022-08-19T14:18:28.547Z,28.50
2022-08-19T14:20:55.456Z,28.54
2022-08-19T14:23:21.768Z,28.56
2022-08-19T14:25:48.168Z,28.56
2022-08-19T14:28:14.531Z,28.56
2022-08-19T14:30:41.006Z,28.57
2022-08-19T14:33:07.499Z,28.58
2022-08-19T14:35:36.200Z,28.60
2022-08-19T14:38:03.889Z,28.61
2022-08-19T14:40:30.319Z,28.63
2022-08-19T14:42:58.684Z,28.64
2022-08-19T14:45:24.973Z,28.63
2022-08-19T14:47:51.320Z,28.61
2022-08-19T14:50:18.679Z,28.59
2022-08-19T14:52:45.022Z,28.60
2022-08-19T14:55:11.660Z,28.58
2022-08-19T14:57:37.945Z,28.57
2022-08-19T15:00:04.207Z,28.58
2022-08-19T15:02:34.773Z,28.58
2022-08-19T15:05:02.031Z,28.56
2022-08-19T15:07:31.311Z,28.56
2022-08-19T15:09:57.744Z,28.57
2022-08-19T15:12:24.185Z,28.55
2022-08-19T15:14:50.675Z,28.55
2022-08-19T15:17:19.315Z,28.53
2022-08-19T15:20:08.225Z,28.52
2022-08-19T15:22:39.334Z,28.50
2022-08-19T15:25:05.703Z,28.50
2022-08-19T15:27:50.802Z,28.50
2022-08-19T15:30:26.397Z,28.50
2022-08-19T15:32:52.797Z,28.50
2022-08-19T15:35:19.164Z,28.49
2022-08-19T15:37:45.460Z,28.49
2022-08-19T15:40:11.790Z,28.49
2022-08-19T15:42:40.353Z,28.48
2022-08-19T15:45:07.926Z,28.48
2022-08-19T15:47:34.869Z,28.47
2022-08-19T15:50:01.909Z,28.46
2022-08-19T15:52:28.287Z,28.45
2022-08-19T15:54:56.072Z,28.44
2022-08-19T15:57:23.686Z,28.44
2022-08-19T15:59:50.184Z,28.44
2022-08-19T16:02:19.383Z,28.42
2022-08-19T16:04:48.527Z,28.41
2022-08-19T16:07:14.818Z,28.40
2022-08-19T16:09:48.789Z,28.39
2022-08-19T16:12:15.147Z,28.38
2022-08-19T16:14:41.479Z,28.37
2022-08-19T16:17:07.963Z,28.36
2022-08-19T16:19:34.398Z,28.36
2022-08-19T16:22:00.679Z,28.35
2022-08-19T16:24:27.064Z,28.34
2022-08-19T16:26:53.301Z,28.33
2022-08-19T16:29:27.646Z,28.32
2022-08-19T16:32:02.688Z,28.32
2022-08-19T16:34:32.176Z,28.31
2022-08-19T16:37:00.023Z,28.30
2022-08-19T16:39:26.479Z,28.29
2022-08-19T16:41:52.835Z,28.28
2022-08-19T16:44:19.166Z,28.28
2022-08-19T16:46:45.676Z,28.27
2022-08-19T16:49:12.023Z,28.24
2022-08-19T16:51:38.373Z,28.25
2022-08-19T16:54:04.654Z,28.24
2022-08-19T16:56:30.913Z,28.22
2022-08-19T16:58:57.207Z,28.21
2022-08-19T17:01:23.528Z,28.19
2022-08-19T17:03:49.858Z,28.17
2022-08-19T17:06:20.770Z,28.15
2022-08-19T17:09:01.432Z,28.14
2022-08-19T17:11:27.770Z,28.13
2022-08-19T17:13:54.246Z,28.11
2022-08-19T17:16:22.427Z,28.10
2022-08-19T17:18:58.922Z,28.08
2022-08-19T17:21:25.527Z,28.08
2022-08-19T17:23:53.282Z,28.05
2022-08-19T17:26:21.567Z,28.04
2022-08-19T17:28:50.885Z,28.02
2022-08-19T17:31:18.592Z,28.01
2022-08-19T17:33:49.426Z,27.99
2022-08-19T17:36:17.313Z,27.98
2022-08-19T17:38:43.757Z,27.97
2022-08-19T17:41:10.129Z,27.95
2022-08-19T17:43:43.162Z,27.95
2022-08-19T17:46:11.016Z,27.93
2022-08-19T17:48:37.587Z,27.91
2022-08-19T17:51:04.001Z,27.90
2022-08-19T17:53:30.553Z,27.88
2022-08-19T17:55:59.910Z,27.86
2022-08-19T17:58:26.214Z,27.85
2022-08-19T18:00:53.793Z,27.83
2022-08-19T18:03:23.149Z,27.77
2022-08-19T18:05:49.521Z,27.71
2022-08-19T18:08:15.988Z,27.66
2022-08-19T18:10:43.597Z,27.60
2022-08-19T18:13:20.439Z,27.54
2022-08-19T18:15:46.793Z,27.48
2022-08-19T18:18:15.005Z,27.44
2022-08-19T18:24:01.585Z,27.34
2022-08-19T18:26:30.897Z,27.29
2022-08-19T18:28:59.334Z,27.25
2022-08-19T18:31:30.869Z,27.21
2022-08-19T18:34:01.265Z,27.17
2022-08-19T18:36:52.081Z,27.12
2022-08-19T18:39:16.509Z,27.06
2022-08-19T18:41:43.139Z,26.99
2022-08-19T18:44:09.558Z,26.90
2022-08-19T18:46:36.879Z,26.83
2022-08-19T18:49:03.423Z,26.78
2022-08-19T18:51:29.651Z,26.73
2022-08-19T18:53:57.323Z,26.69
2022-08-19T18:56:23.662Z,26.65
2022-08-19T18:58:50.075Z,26.61
2022-08-19T19:01:16.604Z,26.56
2022-08-19T19:03:43.194Z,26.53
2022-08-19T19:09:13.377Z,26.38
2022-08-19T19:11:39.709Z,26.32
2022-08-19T19:14:06.098Z,26.23
2022-08-19T19:16:32.448Z,26.17
2022-08-19T19:19:00.896Z,26.14
2022-08-19T19:21:28.357Z,26.11
2022-08-19T19:23:56.252Z,26.08
2022-08-19T19:26:22.586Z,26.05
2022-08-19T19:28:50.040Z,26.02
2022-08-19T19:31:20.711Z,25.99
2022-08-19T19:33:49.248Z,25.94
2022-08-19T19:36:15.684Z,25.91
2022-08-19T19:38:46.272Z,25.86
2022-08-19T19:41:14.888Z,25.79
2022-08-19T19:43:41.430Z,25.74
2022-08-19T19:46:09.014Z,25.70
2022-08-19T19:48:35.734Z,25.66
2022-08-19T19:51:04.391Z,25.61
2022-08-19T19:53:32.411Z,25.56
2022-08-19T19:55:59.159Z,25.52
2022-08-19T19:58:28.461Z,25.49
2022-08-19T20:00:55.563Z,25.46
2022-08-19T20:03:23.945Z,25.44
2022-08-19T20:05:52.189Z,25.42
2022-08-19T20:08:21.121Z,25.40
2022-08-19T20:10:47.397Z,25.37
2022-08-19T20:13:14.258Z,25.36
2022-08-19T20:15:42.679Z,25.33
2022-08-19T20:18:09.221Z,25.30
2022-08-19T20:20:41.549Z,25.25
2022-08-19T20:23:08.348Z,25.20
2022-08-19T20:25:34.651Z,25.14
2022-08-19T20:28:01.071Z,25.10
2022-08-19T20:30:27.500Z,25.06
2022-08-19T20:32:56.160Z,25.03
2022-08-19T20:35:23.771Z,25.02
2022-08-19T20:37:52.901Z,25.02
2022-08-19T20:40:22.560Z,25.01
2022-08-19T20:42:49.047Z,24.98
2022-08-19T20:45:27.129Z,24.96
2022-08-19T20:47:59.703Z,24.94
2022-08-19T20:50:26.073Z,24.90
2022-08-19T20:52:58.635Z,24.88
2022-08-19T20:55:32.526Z,24.88
2022-08-19T20:58:03.368Z,24.86
2022-08-19T21:00:29.724Z,24.85
2022-08-19T21:02:56.104Z,24.83
2022-08-19T21:05:23.256Z,24.82
2022-08-19T21:07:51.646Z,24.80
2022-08-19T21:10:17.964Z,24.78
2022-08-19T21:12:44.264Z,24.75
2022-08-19T21:15:10.578Z,24.72
2022-08-19T21:17:39.817Z,24.71
2022-08-19T21:20:06.253Z,24.69
2022-08-19T21:22:32.663Z,24.66
2022-08-19T21:24:59.186Z,24.65
2022-08-19T21:27:25.632Z,24.60
2022-08-19T21:29:55.041Z,24.55
2022-08-19T21:32:21.396Z,24.52
2022-08-19T21:34:47.773Z,24.48
2022-08-19T21:37:25.196Z,24.48
2022-08-19T21:39:52.395Z,24.48
2022-08-19T21:42:18.901Z,24.47
2022-08-19T21:44:48.102Z,24.48
2022-08-19T21:47:14.447Z,24.48
2022-08-19T21:49:40.747Z,24.47
2022-08-19T21:52:07.035Z,24.46
2022-08-19T21:54:38.124Z,24.42
2022-08-19T21:57:05.142Z,24.37
2022-08-19T21:59:36.667Z,24.32
2022-08-19T22:02:19.110Z,24.28
2022-08-19T22:04:46.228Z,24.25
2022-08-19T22:07:12.733Z,24.21
2022-08-19T22:09:39.100Z,24.19
2022-08-19T22:12:05.418Z,24.17
2022-08-19T22:14:31.715Z,24.14
2022-08-19T22:16:58.417Z,24.10
2022-08-19T22:19:24.749Z,24.08
2022-08-19T22:21:51.102Z,24.04
2022-08-19T22:24:17.514Z,24.01
2022-08-19T22:26:43.826Z,23.97
2022-08-19T22:29:10.286Z,23.94
2022-08-19T22:31:36.825Z,23.91
2022-08-19T22:34:03.161Z,23.89
2022-08-19T22:36:29.649Z,23.87
2022-08-19T22:38:56.028Z,23.85
2022-08-19T22:41:22.352Z,23.84
2022-08-19T22:43:49.613Z,23.80
2022-08-19T22:46:17.412Z,23.76
2022-08-19T22:48:44.167Z,23.74
2022-08-19T22:51:10.464Z,23.73
2022-08-19T22:53:36.841Z,23.72
2022-08-19T22:56:03.096Z,23.71
2022-08-19T22:58:29.355Z,23.70
2022-08-19T23:00:55.620Z,23.68
2022-08-19T23:03:21.923Z,23.65
2022-08-19T23:05:48.343Z,23.65
2022-08-19T23:08:19.006Z,23.63
2022-08-19T23:10:45.240Z,23.62
2022-08-19T23:13:11.617Z,23.60
2022-08-19T23:15:37.896Z,23.58
2022-08-19T23:18:04.296Z,23.57
2022-08-19T23:20:30.604Z,23.55
2022-08-19T23:22:56.874Z,23.54
2022-08-19T23:25:23.280Z,23.53
2022-08-19T23:27:49.575Z,23.53
2022-08-19T23:30:16.335Z,23.55
2022-08-19T23:32:42.681Z,23.54
2022-08-19T23:35:09.106Z,23.53
2022-08-19T23:37:35.373Z,23.55
2022-08-19T23:40:01.736Z,23.55
2022-08-19T23:42:28.176Z,23.55
2022-08-19T23:44:55.771Z,23.55
2022-08-19T23:47:22.409Z,23.55
2022-08-19T23:49:48.802Z,23.54
2022-08-19T23:52:15.095Z,23.55
2022-08-19T23:54:43.452Z,23.55
2022-08-19T23:57:13.149Z,23.55
2022-08-19T23:59:40.529Z,23.55
